Time;durP1;ratioP1;P1;durP2;ratioP2;P2;SDS_P1;SDS_P2;PMS_P1;PMS_P2;Temp;Humidity;BMP_temperature;BMP_pressure;BME280_temperature;BME280_humidity;BME280_pressure;Samples;Min_cycle;Max_cycle;Signal;HPM_P1;HPM_P2
2021/07/23 00:00:55;;;;;;;12.40;9.60;;;20.60;99.90;;;;;;5050266;28;20098;-75
2021/07/23 00:03:20;;;;;;;13.15;10.27;;;20.60;99.90;;;;;;5052053;28;20025;-74
2021/07/23 00:05:46;;;;;;;12.85;9.65;;;20.50;99.90;;;;;;5052068;28;20163;-75
2021/07/23 00:08:12;;;;;;;14.77;10.15;;;20.50;99.90;;;;;;5051475;28;20052;-76
2021/07/23 00:10:38;;;;;;;14.38;11.02;;;20.40;99.90;;;;;;5052235;28;20067;-75
2021/07/23 00:13:03;;;;;;;13.73;10.45;;;20.40;99.90;;;;;;5051198;28;20029;-64
2021/07/23 00:15:29;;;;;;;15.13;11.30;;;20.40;99.90;;;;;;5052184;28;20021;-75
2021/07/23 00:17:55;;;;;;;14.75;10.80;;;20.40;99.90;;;;;;5051446;28;20021;-74
2021/07/23 00:20:21;;;;;;;15.18;11.00;;;20.30;99.90;;;;;;5051731;28;20040;-72
2021/07/23 00:22:46;;;;;;;15.85;11.43;;;20.20;99.90;;;;;;5052113;28;20029;-74
2021/07/23 00:25:12;;;;;;;16.08;11.30;;;20.20;99.90;;;;;;5051580;28;20040;-68
2021/07/23 00:27:38;;;;;;;15.77;11.57;;;20.20;99.90;;;;;;5049727;28;20120;-75
2021/07/23 00:30:05;;;;;;;14.40;11.68;;;20.20;99.90;;;;;;5050101;28;20504;-75
2021/07/23 00:32:31;;;;;;;16.98;12.00;;;20.10;99.90;;;;;;5050153;28;20037;-71
2021/07/23 00:34:56;;;;;;;15.10;11.85;;;20.10;99.90;;;;;;5051047;28;20036;-70
2021/07/23 00:37:22;;;;;;;16.55;12.35;;;20.10;99.90;;;;;;5051444;28;20029;-72
2021/07/23 00:39:48;;;;;;;14.13;12.00;;;20.10;99.90;;;;;;5051447;28;20025;-72
2021/07/23 00:42:13;;;;;;;16.35;12.07;;;20.10;99.90;;;;;;5051190;28;20041;-74
2021/07/23 00:44:39;;;;;;;18.85;12.88;;;20.00;99.90;;;;;;5051366;28;20325;-73
2021/07/23 00:47:05;;;;;;;18.13;12.63;;;20.00;99.90;;;;;;5050798;28;20100;-73
2021/07/23 00:49:31;;;;;;;17.15;12.05;;;20.00;99.90;;;;;;5051193;28;20162;-74
2021/07/23 00:51:57;;;;;;;15.88;12.02;;;20.00;99.90;;;;;;5050686;28;20078;-73
2021/07/23 00:54:23;;;;;;;16.52;11.85;;;20.00;99.90;;;;;;5051342;28;20032;-74
2021/07/23 00:56:49;;;;;;;15.38;12.25;;;20.00;99.90;;;;;;5050335;28;20366;-72
2021/07/23 00:59:17;;;;;;;14.38;11.73;;;20.00;99.90;;;;;;5051323;28;20024;-73
2021/07/23 01:01:44;;;;;;;18.17;13.10;;;20.00;99.90;;;;;;5051055;28;20037;-71
2021/07/23 01:04:09;;;;;;;15.70;11.85;;;20.00;99.90;;;;;;5050842;28;20025;-70
2021/07/23 01:06:35;;;;;;;17.73;12.82;;;20.00;99.90;;;;;;5051055;28;20500;-69
2021/07/23 01:09:01;;;;;;;17.98;12.48;;;20.00;99.90;;;;;;5049323;28;20017;-65
2021/07/23 01:11:27;;;;;;;17.58;13.30;;;19.90;99.90;;;;;;5051206;28;20053;-69
2021/07/23 01:13:53;;;;;;;16.65;12.85;;;19.90;99.90;;;;;;5051057;28;20025;-72
2021/07/23 01:16:19;;;;;;;18.67;12.68;;;19.90;99.90;;;;;;5050264;28;20025;-70
2021/07/23 01:18:45;;;;;;;17.33;12.90;;;20.00;99.90;;;;;;5051226;28;20033;-71
2021/07/23 01:21:11;;;;;;;16.33;12.30;;;20.00;99.90;;;;;;5050940;28;20052;-69
2021/07/23 01:23:37;;;;;;;14.93;11.82;;;20.00;99.90;;;;;;5051187;28;20025;-69
2021/07/23 01:26:04;;;;;;;18.35;12.60;;;20.00;99.90;;;;;;5050589;28;20036;-64
2021/07/23 01:28:34;;;;;;;20.58;13.18;;;20.00;99.90;;;;;;5051180;28;20029;-74
2021/07/23 01:31:03;;;;;;;16.40;11.80;;;19.90;99.90;;;;;;5051321;28;20100;-76
2021/07/23 01:33:30;;;;;;;16.98;13.55;;;19.90;99.90;;;;;;5051323;28;20048;-74
2021/07/23 01:35:56;;;;;;;15.85;13.18;;;19.90;99.90;;;;;;5049608;28;20036;-66
2021/07/23 01:38:28;;;;;;;16.15;12.32;;;19.80;99.90;;;;;;5050789;28;20032;-73
2021/07/23 01:40:54;;;;;;;19.52;12.88;;;19.80;99.90;;;;;;5050482;28;20029;-75
2021/07/23 01:43:21;;;;;;;17.13;13.00;;;19.80;99.90;;;;;;5050990;28;20025;-67
2021/07/23 01:45:46;;;;;;;16.88;11.55;;;19.80;99.90;;;;;;5051166;28;20029;-74
2021/07/23 01:48:12;;;;;;;16.50;12.45;;;19.80;99.90;;;;;;5050758;28;20040;-73
2021/07/23 01:50:38;;;;;;;16.55;13.30;;;19.80;99.90;;;;;;5050962;28;20028;-70
2021/07/23 01:53:04;;;;;;;16.35;12.95;;;19.80;99.90;;;;;;5050550;28;20420;-71
2021/07/23 01:55:30;;;;;;;19.88;14.02;;;19.70;99.90;;;;;;5051024;28;20021;-72
2021/07/23 01:57:56;;;;;;;18.95;13.70;;;19.60;99.90;;;;;;5050622;28;20078;-67
2021/07/23 02:00:22;;;;;;;19.20;14.30;;;19.60;99.90;;;;;;5053252;28;20025;-74
2021/07/23 02:02:48;;;;;;;18.02;13.70;;;19.40;99.90;;;;;;5054914;28;20547;-75
2021/07/23 02:05:13;;;;;;;20.00;14.88;;;19.40;99.90;;;;;;5054247;28;20055;-76
2021/07/23 02:07:39;;;;;;;20.92;15.40;;;19.40;99.90;;;;;;5054417;28;20360;-75
2021/07/23 02:10:06;;;;;;;22.77;15.35;;;19.40;99.90;;;;;;5054040;28;20024;-73
2021/07/23 02:12:32;;;;;;;17.58;14.35;;;19.30;99.90;;;;;;5054465;28;20092;-75
2021/07/23 02:14:57;;;;;;;21.42;15.20;;;19.30;99.90;;;;;;5053691;28;20033;-75
2021/07/23 02:17:23;;;;;;;18.23;14.35;;;19.20;99.90;;;;;;5054197;28;20036;-77
2021/07/23 02:19:49;;;;;;;19.02;14.75;;;19.20;99.90;;;;;;5053222;28;20032;-72
2021/07/23 02:22:14;;;;;;;18.52;14.50;;;19.20;99.90;;;;;;5054086;28;20037;-76
2021/07/23 02:24:40;;;;;;;21.70;14.75;;;19.20;99.90;;;;;;5054207;28;20504;-76
2021/07/23 02:27:06;;;;;;;18.67;15.35;;;19.10;99.90;;;;;;5053818;28;20158;-69
2021/07/23 02:29:31;;;;;;;19.38;14.80;;;19.20;99.90;;;;;;5053961;28;20029;-76
2021/07/23 02:31:57;;;;;;;21.05;15.32;;;19.10;99.90;;;;;;5053707;28;20428;-72
2021/07/23 02:34:23;;;;;;;20.95;14.82;;;19.10;99.90;;;;;;5054074;28;20057;-71
2021/07/23 02:36:49;;;;;;;18.13;13.95;;;19.10;99.90;;;;;;5041705;28;20109;-76
2021/07/23 02:39:14;;;;;;;17.25;13.88;;;19.10;99.90;;;;;;5054006;28;20031;-72
2021/07/23 02:41:40;;;;;;;18.55;14.38;;;19.00;99.90;;;;;;5053853;28;20188;-75
2021/07/23 02:44:06;;;;;;;18.25;13.07;;;19.10;99.90;;;;;;5053247;28;20029;-74
2021/07/23 02:46:32;;;;;;;18.98;13.55;;;19.10;99.90;;;;;;5052459;28;20036;-72
2021/07/23 02:48:57;;;;;;;19.52;14.27;;;19.20;99.90;;;;;;5053628;28;20059;-76
2021/07/23 02:51:23;;;;;;;17.70;13.50;;;19.20;99.90;;;;;;5053305;28;20047;-74
2021/07/23 02:53:49;;;;;;;17.25;13.77;;;19.20;99.90;;;;;;5053870;28;20381;-67
2021/07/23 02:56:15;;;;;;;18.88;13.88;;;19.20;99.90;;;;;;5053393;28;20029;-70
2021/07/23 02:58:42;;;;;;;19.50;14.52;;;19.10;99.90;;;;;;5053619;28;20028;-71
2021/07/23 03:01:09;;;;;;;20.23;13.82;;;19.10;99.90;;;;;;5053219;28;20037;-75
2021/07/23 03:03:35;;;;;;;19.98;13.88;;;19.10;99.90;;;;;;5053276;28;20043;-68
2021/07/23 03:06:01;;;;;;;17.85;13.75;;;19.10;99.90;;;;;;5051897;28;20036;-63
2021/07/23 03:08:27;;;;;;;17.38;13.77;;;19.10;99.90;;;;;;5052728;28;20025;-74
2021/07/23 03:10:53;;;;;;;18.52;13.43;;;19.00;99.90;;;;;;5052631;28;20065;-76
2021/07/23 03:13:19;;;;;;;21.67;13.77;;;19.00;99.90;;;;;;5053407;28;20036;-76
2021/07/23 03:15:45;;;;;;;19.73;13.40;;;19.10;99.90;;;;;;5053072;28;20033;-73
2021/07/23 03:18:10;;;;;;;19.60;13.48;;;19.00;99.90;;;;;;5053031;28;20550;-73
2021/07/23 03:20:39;;;;;;;18.10;13.65;;;19.00;99.90;;;;;;5052265;28;20041;-71
2021/07/23 03:23:05;;;;;;;17.05;12.48;;;19.10;99.90;;;;;;5052747;28;20513;-76
2021/07/23 03:25:31;;;;;;;17.92;13.45;;;19.10;99.90;;;;;;5053050;28;20033;-69
2021/07/23 03:27:57;;;;;;;17.33;13.07;;;19.10;99.90;;;;;;5051405;28;20025;-76
2021/07/23 03:30:22;;;;;;;16.70;12.57;;;19.10;99.90;;;;;;5052588;28;20083;-73
2021/07/23 03:32:48;;;;;;;18.60;13.00;;;19.00;99.90;;;;;;5053292;28;20032;-75
2021/07/23 03:35:14;;;;;;;18.40;12.82;;;19.00;99.90;;;;;;5052344;28;20434;-74
2021/07/23 03:37:40;;;;;;;17.30;12.55;;;19.00;99.90;;;;;;5052773;28;20025;-67
2021/07/23 03:40:07;;;;;;;17.42;13.73;;;19.00;99.90;;;;;;5052636;28;20471;-70
2021/07/23 03:42:33;;;;;;;16.30;12.02;;;18.90;99.90;;;;;;5052754;28;20033;-70
2021/07/23 03:44:59;;;;;;;17.83;12.82;;;18.90;99.90;;;;;;5052308;28;20032;-72
2021/07/23 03:47:25;;;;;;;18.45;12.70;;;18.90;99.90;;;;;;5052745;28;20051;-74
2021/07/23 03:49:50;;;;;;;19.35;13.25;;;18.80;99.90;;;;;;5052180;28;20032;-62
2021/07/23 03:52:16;;;;;;;16.30;12.48;;;18.80;99.90;;;;;;5052575;28;20039;-73
2021/07/23 03:54:42;;;;;;;17.83;12.38;;;18.80;99.90;;;;;;5052451;28;20130;-73
2021/07/23 03:57:07;;;;;;;15.30;11.60;;;18.80;99.90;;;;;;5052384;28;20498;-74
2021/07/23 03:59:33;;;;;;;16.27;11.93;;;18.80;99.90;;;;;;5052449;28;20021;-71
2021/07/23 04:01:59;;;;;;;15.43;11.10;;;18.90;99.90;;;;;;5051599;28;20079;-73
2021/07/23 04:04:25;;;;;;;14.18;11.55;;;18.90;99.90;;;;;;5052037;28;20057;-77
2021/07/23 04:07:00;;;;;;;16.75;12.13;;;18.80;99.90;;;;;;5052027;28;20040;-74
2021/07/23 04:09:29;;;;;;;18.13;12.55;;;18.80;99.90;;;;;;5052021;28;20542;-75
2021/07/23 04:11:55;;;;;;;16.95;12.32;;;18.70;99.90;;;;;;5051912;28;20033;-76
2021/07/23 04:14:22;;;;;;;17.90;12.50;;;18.60;99.90;;;;;;5051600;28;20029;-72
2021/07/23 04:16:49;;;;;;;16.02;11.55;;;18.60;99.90;;;;;;5052520;28;20099;-75
2021/07/23 04:19:15;;;;;;;18.90;12.50;;;18.60;99.90;;;;;;5052385;28;20029;-73
2021/07/23 04:21:41;;;;;;;17.70;12.48;;;18.50;99.90;;;;;;5050602;28;20064;-74
2021/07/23 04:24:07;;;;;;;15.32;12.18;;;18.50;99.90;;;;;;5051641;28;20482;-75
2021/07/23 04:26:34;;;;;;;14.43;10.65;;;18.50;99.90;;;;;;5051909;28;20031;-76
2021/07/23 04:29:00;;;;;;;14.95;12.02;;;18.50;99.90;;;;;;5051694;28;20029;-69
2021/07/23 04:31:27;;;;;;;14.85;11.82;;;18.60;99.90;;;;;;5051665;28;20028;-73
2021/07/23 04:33:52;;;;;;;17.58;11.98;;;18.50;99.90;;;;;;5051525;28;20087;-74
2021/07/23 04:36:18;;;;;;;17.83;12.10;;;18.40;99.90;;;;;;5051557;28;20028;-76
2021/07/23 04:38:43;;;;;;;14.70;10.90;;;18.40;99.90;;;;;;5051484;28;20476;-70
2021/07/23 04:41:09;;;;;;;17.42;10.90;;;18.40;99.90;;;;;;5051074;28;20111;-70
2021/07/23 04:43:38;;;;;;;15.73;11.35;;;18.40;99.90;;;;;;5051367;28;20092;-74
2021/07/23 04:46:04;;;;;;;19.95;11.80;;;18.40;99.90;;;;;;5051100;28;20036;-67
2021/07/23 04:48:30;;;;;;;14.63;11.13;;;18.30;99.90;;;;;;5051277;28;20029;-76
2021/07/23 04:50:56;;;;;;;16.67;11.50;;;18.30;99.90;;;;;;5050390;28;20037;-73
2021/07/23 04:53:21;;;;;;;15.05;10.38;;;18.40;99.90;;;;;;5051365;28;20024;-75
2021/07/23 04:55:52;;;;;;;14.82;10.70;;;18.40;99.90;;;;;;5051692;28;20099;-72
2021/07/23 04:58:17;;;;;;;13.00;8.82;;;18.60;99.90;;;;;;5051545;28;20091;-68
2021/07/23 05:00:45;;;;;;;10.77;8.20;;;18.90;99.90;;;;;;5050947;28;20076;-67
2021/07/23 05:03:11;;;;;;;11.85;7.88;;;19.10;99.90;;;;;;5051173;28;20036;-65
2021/07/23 05:05:40;;;;;;;8.95;7.10;;;19.30;99.90;;;;;;5050871;28;20033;-64
2021/07/23 05:08:06;;;;;;;11.32;7.20;;;19.40;99.90;;;;;;5051202;28;20029;-64
2021/07/23 05:10:31;;;;;;;9.88;6.97;;;19.50;99.90;;;;;;5051028;28;20021;-74
2021/07/23 05:12:57;;;;;;;9.90;6.70;;;19.60;99.90;;;;;;5050795;28;20029;-74
2021/07/23 05:15:23;;;;;;;8.57;6.15;;;19.70;99.90;;;;;;5050170;28;20067;-72
2021/07/23 05:17:49;;;;;;;7.68;5.93;;;19.80;99.90;;;;;;5051595;28;20025;-75
2021/07/23 05:20:14;;;;;;;7.40;5.75;;;19.80;99.90;;;;;;5050633;28;20017;-74
2021/07/23 05:22:40;;;;;;;11.40;6.30;;;19.90;99.90;;;;;;5050704;28;20037;-71
2021/07/23 05:25:11;;;;;;;8.75;6.05;;;19.90;99.90;;;;;;5050923;28;20017;-69
2021/07/23 05:27:37;;;;;;;7.25;5.72;;;19.90;99.90;;;;;;5051244;28;20036;-72
2021/07/23 05:30:04;;;;;;;8.07;5.65;;;20.00;99.90;;;;;;5050528;28;20025;-65
2021/07/23 05:32:29;;;;;;;6.97;5.28;;;20.00;99.90;;;;;;5050093;28;20029;-70
2021/07/23 05:34:55;;;;;;;8.60;5.70;;;20.10;99.90;;;;;;5054320;28;20024;-60
2021/07/23 05:37:20;;;;;;;13.98;10.05;;;20.20;99.90;;;;;;5055112;28;20484;-72
2021/07/23 05:39:46;;;;;;;18.88;12.40;;;19.60;99.90;;;;;;5055223;28;20488;-78
2021/07/23 05:42:11;;;;;;;18.58;12.73;;;17.60;99.90;;;;;;5054683;28;20108;-73
2021/07/23 05:44:37;;;;;;;21.05;13.75;;;16.90;99.90;;;;;;5054616;28;20021;-71
2021/07/23 05:47:03;;;;;;;18.20;13.25;;;16.60;99.90;;;;;;5054266;28;20603;-72
2021/07/23 05:49:29;;;;;;;17.30;11.43;;;16.80;99.90;;;;;;5054541;28;20049;-69
2021/07/23 05:51:54;;;;;;;17.73;11.65;;;17.00;99.90;;;;;;5045626;28;20106;-71
2021/07/23 05:54:20;;;;;;;17.42;11.52;;;17.30;99.90;;;;;;5054702;28;20028;-66
2021/07/23 05:56:46;;;;;;;19.10;12.30;;;17.60;99.90;;;;;;5054924;28;20024;-68
2021/07/23 05:59:12;;;;;;;16.63;12.48;;;17.50;99.90;;;;;;5054610;28;20469;-69
2021/07/23 06:01:38;;;;;;;18.38;12.90;;;17.30;99.90;;;;;;5054040;28;20041;-73
2021/07/23 06:04:04;;;;;;;14.93;12.48;;;17.30;99.90;;;;;;5054170;28;20023;-73
2021/07/23 06:06:30;;;;;;;20.17;14.15;;;17.30;99.90;;;;;;5054292;28;20033;-80
2021/07/23 06:08:56;;;;;;;20.08;13.60;;;17.20;99.90;;;;;;5052630;28;20031;-79
2021/07/23 06:12:06;;;;;;;17.95;11.82;;;17.20;99.90;;;;;;5058144;28;20029;-77
2021/07/23 06:14:32;;;;;;;21.08;13.68;;;17.50;99.90;;;;;;5057281;28;20393;-68
2021/07/23 06:16:58;;;;;;;17.65;11.60;;;17.10;99.90;;;;;;5053707;28;20034;-79
2021/07/23 06:19:24;;;;;;;14.73;11.93;;;17.40;99.90;;;;;;5054297;28;20024;-75
2021/07/23 06:21:50;;;;;;;17.65;11.20;;;17.60;99.90;;;;;;5052818;28;20059;-68
2021/07/23 06:24:16;;;;;;;16.05;10.23;;;18.10;99.90;;;;;;5053774;28;20071;-78
2021/07/23 06:26:43;;;;;;;13.32;10.32;;;18.60;99.90;;;;;;5053127;28;20022;-76
2021/07/23 06:29:09;;;;;;;12.07;9.15;;;18.90;99.90;;;;;;5053311;28;20505;-77
2021/07/23 06:31:35;;;;;;;12.73;8.73;;;19.20;99.90;;;;;;5053804;28;20042;-79
2021/07/23 06:34:02;;;;;;;12.43;9.23;;;19.40;99.90;;;;;;5053685;28;20448;-78
2021/07/23 06:36:27;;;;;;;13.65;9.00;;;19.50;99.90;;;;;;5053380;28;20025;-80
2021/07/23 06:38:53;;;;;;;15.20;8.98;;;19.60;99.90;;;;;;5053704;28;20101;-73
2021/07/23 06:41:18;;;;;;;12.35;8.55;;;19.70;99.90;;;;;;5053754;28;20052;-71
2021/07/23 06:43:44;;;;;;;11.35;8.65;;;19.80;99.90;;;;;;5053185;28;20049;-76
2021/07/23 06:46:10;;;;;;;16.38;8.73;;;19.70;99.90;;;;;;5051733;28;20036;-79
2021/07/23 06:48:36;;;;;;;11.90;8.55;;;19.70;99.90;;;;;;5051978;28;20473;-78
2021/07/23 06:51:04;;;;;;;13.68;9.45;;;19.80;99.90;;;;;;5053544;28;20122;-80
2021/07/23 06:53:29;;;;;;;11.25;8.73;;;19.90;99.90;;;;;;5047210;28;20033;-74
2021/07/23 06:55:55;;;;;;;11.52;7.78;;;19.90;99.90;;;;;;5055621;28;20159;-78
2021/07/23 06:58:21;;;;;;;8.80;7.10;;;19.90;99.90;;;;;;5058150;28;20016;-74
2021/07/23 07:00:47;;;;;;;8.25;6.80;;;20.00;99.90;;;;;;5055695;28;20044;-74
2021/07/23 07:03:13;;;;;;;9.40;7.00;;;20.10;99.90;;;;;;5066140;28;20445;-73
2021/07/23 07:05:38;;;;;;;8.25;6.20;;;20.30;99.90;;;;;;5054728;28;20154;-68
2021/07/23 07:08:04;;;;;;;7.32;5.63;;;20.40;99.90;;;;;;5055524;28;20254;-69
2021/07/23 07:10:30;;;;;;;9.60;5.65;;;20.40;99.90;;;;;;5054285;28;20036;-77
2021/07/23 07:12:56;;;;;;;9.00;5.72;;;20.50;99.90;;;;;;5058751;28;20024;-70
2021/07/23 07:15:22;;;;;;;6.35;4.93;;;20.60;99.90;;;;;;5057962;28;20029;-77
2021/07/23 07:17:48;;;;;;;6.85;4.88;;;20.70;99.90;;;;;;5036821;28;20056;-78
2021/07/23 07:20:16;;;;;;;7.38;5.20;;;20.70;99.90;;;;;;5066197;28;20104;-75
2021/07/23 07:22:42;;;;;;;7.38;4.90;;;20.80;99.90;;;;;;5067602;28;20032;-78
2021/07/23 07:25:09;;;;;;;6.97;4.80;;;20.90;99.90;;;;;;5056854;28;20029;-76
2021/07/23 07:27:34;;;;;;;6.38;4.32;;;20.90;99.90;;;;;;5052796;28;20021;-78
2021/07/23 07:30:00;;;;;;;6.45;4.32;;;21.00;99.90;;;;;;5060441;28;20029;-78
2021/07/23 07:32:26;;;;;;;5.70;4.10;;;21.00;99.90;;;;;;5068981;28;20025;-77
2021/07/23 07:34:51;;;;;;;6.60;4.65;;;21.10;99.90;;;;;;5057238;28;20016;-77
2021/07/23 07:37:17;;;;;;;4.97;4.32;;;21.10;99.90;;;;;;5054395;28;20039;-77
2021/07/23 07:39:42;;;;;;;4.55;4.13;;;21.20;99.90;;;;;;5056965;28;20469;-75
2021/07/23 07:42:08;;;;;;;5.25;4.28;;;21.20;99.90;;;;;;5068700;28;20041;-84
2021/07/23 07:44:33;;;;;;;6.55;4.32;;;21.30;99.90;;;;;;5057452;28;20044;-73
2021/07/23 07:46:59;;;;;;;7.47;4.55;;;21.40;99.90;;;;;;5049763;28;20512;-70
2021/07/23 07:49:25;;;;;;;5.88;4.13;;;21.40;99.90;;;;;;5060327;28;20044;-71
2021/07/23 07:51:50;;;;;;;5.50;4.20;;;21.50;99.90;;;;;;5047070;28;20109;-65
2021/07/23 07:54:16;;;;;;;4.40;3.85;;;21.60;99.90;;;;;;5034616;28;20037;-67
2021/07/23 07:56:41;;;;;;;5.25;4.22;;;21.70;99.90;;;;;;5046064;28;20082;-66
2021/07/23 07:59:08;;;;;;;9.55;3.97;;;21.70;99.90;;;;;;5046096;28;20047;-67
2021/07/23 08:01:34;;;;;;;10.05;4.03;;;21.80;99.90;;;;;;5053231;28;20040;-71
2021/07/23 08:03:59;;;;;;;6.30;4.38;;;21.90;99.90;;;;;;5049633;28;20491;-72
2021/07/23 08:06:33;;;;;;;6.50;4.40;;;22.00;99.90;;;;;;5050176;28;20600;-82
2021/07/23 08:09:05;;;;;;;7.57;4.28;;;22.00;99.90;;;;;;5052988;28;20024;-75
2021/07/23 08:11:32;;;;;;;8.63;4.20;;;22.30;99.90;;;;;;5051398;28;20035;-79
2021/07/23 08:13:58;;;;;;;7.68;3.97;;;22.40;99.90;;;;;;5051882;28;20025;-80
2021/07/23 08:16:24;;;;;;;6.35;3.70;;;22.50;99.90;;;;;;5050863;28;20036;-75
2021/07/23 08:18:49;;;;;;;5.95;4.03;;;22.50;99.90;;;;;;5050534;28;20060;-68
2021/07/23 08:21:15;;;;;;;5.45;4.22;;;22.50;99.90;;;;;;5042967;28;20092;-72
2021/07/23 08:23:41;;;;;;;5.57;4.10;;;22.40;99.90;;;;;;5050111;28;20036;-73
2021/07/23 08:26:06;;;;;;;6.50;4.25;;;22.30;99.90;;;;;;5051278;28;20029;-70
2021/07/23 08:28:33;;;;;;;5.47;4.10;;;22.30;99.90;;;;;;5052002;28;20100;-72
2021/07/23 08:30:58;;;;;;;5.22;4.20;;;22.30;99.90;;;;;;5051322;28;20094;-71
2021/07/23 08:33:24;;;;;;;5.13;4.40;;;22.30;99.90;;;;;;5051714;28;20021;-71
2021/07/23 08:35:50;;;;;;;5.50;4.13;;;22.30;99.90;;;;;;5051569;28;20025;-69
2021/07/23 08:38:17;;;;;;;5.53;3.83;;;22.30;99.90;;;;;;5051305;28;20098;-71
2021/07/23 08:40:44;;;;;;;4.05;3.60;;;22.30;99.90;;;;;;5051716;28;20020;-71
2021/07/23 08:43:10;;;;;;;4.93;3.90;;;22.30;99.90;;;;;;5051580;28;20634;-71
2021/07/23 08:45:37;;;;;;;4.80;4.13;;;22.40;99.90;;;;;;5051621;28;20032;-70
2021/07/23 08:48:04;;;;;;;4.75;3.90;;;22.40;99.90;;;;;;5051258;28;20059;-71
2021/07/23 08:50:30;;;;;;;6.22;4.00;;;22.40;99.90;;;;;;5051802;28;20029;-71
2021/07/23 08:52:56;;;;;;;5.63;3.75;;;22.30;99.90;;;;;;5051383;28;20104;-71
2021/07/23 08:55:23;;;;;;;5.97;3.85;;;22.30;99.90;;;;;;5051663;28;20021;-70
2021/07/23 08:57:50;;;;;;;4.13;3.72;;;22.40;99.90;;;;;;5052036;28;20032;-71
2021/07/23 09:00:17;;;;;;;4.90;3.85;;;22.40;99.90;;;;;;5051624;28;20419;-71
2021/07/23 09:02:52;;;;;;;5.38;3.72;;;22.40;99.90;;;;;;5051433;28;20124;-71
2021/07/23 09:05:20;;;;;;;4.72;3.83;;;22.40;99.90;;;;;;5051309;28;20438;-71
2021/07/23 09:07:45;;;;;;;4.82;3.72;;;22.40;99.90;;;;;;5051462;28;20048;-72
2021/07/23 09:10:19;;;;;;;5.38;3.80;;;22.40;99.90;;;;;;5051186;28;20055;-71
2021/07/23 09:12:50;;;;;;;4.78;3.78;;;22.40;99.90;;;;;;5051719;28;20040;-71
2021/07/23 09:15:37;;;;;;;5.25;4.00;;;22.40;99.90;;;;;;5051861;28;20483;-70
2021/07/23 09:18:07;;;;;;;5.13;4.18;;;22.50;99.90;;;;;;5051200;28;20040;-73
2021/07/23 09:20:33;;;;;;;5.15;3.92;;;22.50;99.90;;;;;;5051222;28;20508;-73
2021/07/23 09:23:03;;;;;;;4.30;3.90;;;22.50;99.90;;;;;;5050480;28;20025;-70
2021/07/23 09:25:32;;;;;;;4.38;3.72;;;22.50;99.90;;;;;;5049700;28;20025;-74
2021/07/23 09:27:58;;;;;;;4.35;3.88;;;22.50;99.90;;;;;;5049664;28;20025;-73
2021/07/23 09:30:44;;;;;;;6.68;4.07;;;22.60;99.90;;;;;;5049798;28;20017;-72
2021/07/23 09:33:10;;;;;;;3.95;3.55;;;22.60;99.90;;;;;;5046764;28;20494;-79
2021/07/23 09:35:36;;;;;;;4.53;4.13;;;22.60;99.90;;;;;;5049842;28;20032;-72
2021/07/23 09:38:03;;;;;;;4.53;4.00;;;22.60;99.90;;;;;;5049000;28;20021;-66
2021/07/23 09:40:43;;;;;;;4.55;3.97;;;22.60;99.90;;;;;;5050066;28;21956;-76
2021/07/23 09:43:09;;;;;;;4.63;4.07;;;22.70;99.90;;;;;;5050350;28;20039;-74
2021/07/23 09:45:35;;;;;;;6.05;3.97;;;22.70;99.90;;;;;;5049559;28;20013;-73
2021/07/23 09:48:11;;;;;;;5.65;3.75;;;22.70;99.90;;;;;;5049495;28;20032;-73
2021/07/23 09:50:48;;;;;;;4.93;3.53;;;22.70;99.90;;;;;;5049533;28;20516;-73
2021/07/23 09:53:15;;;;;;;4.15;3.75;;;22.70;99.90;;;;;;5048238;28;20036;-74
2021/07/23 09:55:46;;;;;;;5.07;3.70;;;22.70;99.90;;;;;;5047493;28;20726;-70
2021/07/23 09:58:19;;;;;;;4.93;4.18;;;22.70;99.90;;;;;;5048097;28;20393;-70
2021/07/23 10:00:55;;;;;;;4.33;3.90;;;22.70;99.90;;;;;;5048521;28;20045;-71
2021/07/23 10:03:23;;;;;;;4.72;4.10;;;22.70;99.90;;;;;;5051058;28;20021;-73
2021/07/23 10:06:01;;;;;;;4.95;3.70;;;22.70;99.90;;;;;;5050831;28;20051;-64
2021/07/23 10:08:31;;;;;;;4.65;3.55;;;22.70;99.90;;;;;;5049122;28;20449;-67
2021/07/23 10:11:00;;;;;;;4.63;4.10;;;22.70;99.90;;;;;;5048550;28;20469;-64
2021/07/23 10:13:29;;;;;;;5.72;4.15;;;22.80;99.90;;;;;;5049127;28;20421;-65
2021/07/23 10:15:55;;;;;;;4.40;3.97;;;22.80;99.90;;;;;;5048746;28;20029;-67
2021/07/23 10:18:22;;;;;;;4.13;3.65;;;22.80;99.90;;;;;;5049376;28;20021;-65
2021/07/23 10:20:49;;;;;;;4.32;3.63;;;22.80;99.90;;;;;;5051309;28;20024;-69
2021/07/23 10:23:21;;;;;;;4.32;3.88;;;22.80;99.90;;;;;;5053467;28;20029;-65
2021/07/23 10:25:51;;;;;;;3.92;3.55;;;22.80;99.90;;;;;;5054685;28;20032;-64
2021/07/23 10:28:42;;;;;;;4.10;3.70;;;22.80;99.90;;;;;;5054635;28;20626;-68
2021/07/23 10:31:17;;;;;;;4.40;3.85;;;22.90;99.90;;;;;;5054203;28;20417;-68
2021/07/23 10:33:57;;;;;;;4.65;3.85;;;22.80;99.90;;;;;;5053959;28;20055;-67
2021/07/23 10:36:31;;;;;;;5.00;3.47;;;22.90;99.90;;;;;;5051216;28;20537;-66
2021/07/23 10:39:06;;;;;;;4.40;4.00;;;22.90;99.90;;;;;;5050580;28;20025;-68
2021/07/23 10:41:35;;;;;;;3.97;3.58;;;22.90;99.90;;;;;;5049701;28;20033;-66
2021/07/23 10:44:00;;;;;;;3.85;3.42;;;22.90;99.90;;;;;;5052424;28;20025;-66
2021/07/23 10:46:45;;;;;;;4.43;3.60;;;22.90;99.90;;;;;;5052459;28;20070;-66
2021/07/23 10:49:31;;;;;;;4.88;3.70;;;22.90;99.90;;;;;;5049536;28;20104;-67
2021/07/23 10:52:00;;;;;;;4.32;3.65;;;22.90;99.90;;;;;;5053667;28;20071;-68
2021/07/23 10:54:31;;;;;;;4.38;3.20;;;22.90;99.90;;;;;;5053703;28;20377;-68
2021/07/23 10:57:03;;;;;;;5.63;3.72;;;22.90;99.90;;;;;;5053022;28;20021;-68
2021/07/23 10:59:47;;;;;;;4.93;3.55;;;23.00;99.90;;;;;;5053540;28;20373;-65
2021/07/23 11:02:14;;;;;;;3.85;3.45;;;23.00;99.90;;;;;;5053309;28;20098;-66
2021/07/23 11:04:43;;;;;;;4.47;3.97;;;23.00;99.90;;;;;;5053454;28;20090;-65
2021/07/23 11:07:10;;;;;;;4.75;3.80;;;23.00;99.90;;;;;;5053294;28;20366;-65
2021/07/23 11:09:36;;;;;;;4.47;3.58;;;23.00;99.90;;;;;;5053459;28;20017;-64
2021/07/23 11:12:22;;;;;;;4.25;3.85;;;23.00;99.90;;;;;;5053217;28;20028;-65
2021/07/23 11:15:08;;;;;;;3.83;3.47;;;23.00;99.90;;;;;;5057257;28;20654;-68
2021/07/23 11:17:56;;;;;;;4.32;3.58;;;23.00;99.90;;;;;;5064942;28;20429;-66
2021/07/23 11:20:23;;;;;;;4.15;3.75;;;23.00;99.90;;;;;;5053130;28;20532;-68
2021/07/23 11:22:52;;;;;;;3.97;3.58;;;23.00;99.90;;;;;;5053746;28;20116;-65
2021/07/23 11:25:19;;;;;;;4.50;3.92;;;23.00;99.90;;;;;;5052158;28;20021;-65
2021/07/23 11:27:49;;;;;;;3.85;3.40;;;23.00;99.90;;;;;;5053495;28;20029;-66
2021/07/23 11:30:21;;;;;;;4.45;3.95;;;23.00;99.90;;;;;;5053515;28;20017;-66
2021/07/23 11:32:54;;;;;;;4.38;3.97;;;23.00;99.90;;;;;;5053420;28;20044;-68
2021/07/23 11:35:22;;;;;;;4.75;3.80;;;23.10;99.90;;;;;;5052995;28;20539;-65
2021/07/23 11:37:48;;;;;;;4.63;4.15;;;23.00;99.90;;;;;;5053226;28;20029;-66
2021/07/23 11:40:16;;;;;;;4.95;3.72;;;23.00;99.90;;;;;;5052593;28;20477;-65
2021/07/23 11:42:50;;;;;;;3.97;3.60;;;23.10;99.90;;;;;;5052393;28;20033;-66
2021/07/23 11:45:21;;;;;;;4.20;3.80;;;23.00;99.90;;;;;;5053018;28;20100;-65
2021/07/23 11:47:49;;;;;;;4.03;3.65;;;23.10;99.90;;;;;;5053399;28;20040;-68
2021/07/23 11:50:24;;;;;;;3.80;3.50;;;23.10;99.90;;;;;;5045498;28;20501;-67
2021/07/23 11:52:58;;;;;;;4.38;3.85;;;23.10;99.90;;;;;;5042496;28;20136;-68
2021/07/23 11:55:24;;;;;;;4.78;3.88;;;23.10;99.90;;;;;;5052333;28;20100;-67
2021/07/23 11:57:50;;;;;;;4.43;3.97;;;23.10;99.90;;;;;;5052316;28;20181;-67
2021/07/23 12:00:29;;;;;;;4.55;3.88;;;23.20;99.90;;;;;;5052759;28;20432;-66
2021/07/23 12:02:55;;;;;;;4.47;3.55;;;23.30;99.90;;;;;;5052130;28;20033;-67
2021/07/23 12:05:22;;;;;;;4.32;3.72;;;23.30;99.90;;;;;;5052378;28;20086;-72
2021/07/23 12:08:02;;;;;;;4.50;3.80;;;23.40;99.90;;;;;;5052454;28;20029;-66
2021/07/23 12:10:32;;;;;;;4.32;3.80;;;23.50;99.90;;;;;;5051578;28;20036;-68
2021/07/23 12:13:09;;;;;;;3.95;3.55;;;23.60;99.90;;;;;;5052152;28;20032;-70
2021/07/23 12:15:54;;;;;;;4.00;3.53;;;23.60;99.90;;;;;;5052254;28;20362;-69
2021/07/23 12:18:21;;;;;;;3.53;3.22;;;23.70;99.90;;;;;;5052067;28;20086;-67
2021/07/23 12:20:47;;;;;;;3.85;3.33;;;23.70;99.90;;;;;;5052396;28;20472;-74
2021/07/23 12:23:23;;;;;;;3.85;3.55;;;23.70;99.90;;;;;;5051520;28;20381;-68
2021/07/23 12:25:48;;;;;;;4.60;3.67;;;23.70;99.90;;;;;;5052389;28;20130;-67
2021/07/23 12:28:17;;;;;;;4.18;3.42;;;23.80;99.90;;;;;;5051538;28;20585;-73
2021/07/23 12:30:45;;;;;;;3.63;3.33;;;23.80;99.90;;;;;;5051882;28;20025;-68
2021/07/23 12:33:25;;;;;;;4.43;3.30;;;23.90;99.90;;;;;;5051604;28;20051;-65
2021/07/23 12:35:52;;;;;;;4.28;3.88;;;23.90;99.90;;;;;;5051637;28;20103;-67
2021/07/23 12:38:18;;;;;;;3.97;3.58;;;23.90;99.90;;;;;;5052388;28;20086;-67
2021/07/23 12:40:56;;;;;;;4.10;3.63;;;23.90;99.90;;;;;;5051753;28;20103;-73